YPWR

Woomera Airfield Airport

Woomera, Australia
TAF YPWR 221050Z 2212/2306 15010KT CAVOK FM221800 09010KT CAVOK FM230000 03014KT CAVOK PROB30 INTER 2303/2306 VRB20G40KT 8000 TSRA FEW140CB
Issued Valid From Valid To
Jan-22 @ 10:50 UTC
(6 hours ago)
Jan-22 @ 12:00 UTC
(5 hours ago)
Jan-23 @ 06:00 UTC
(in 13 hours)
Jan-22 @ 12:00 to Jan-22 @ 18:00
TAF YPWR 221050Z 2212/2306 15010KT CAVOK
Wind Visibility Clouds Conditions
150° at 10 knots 10,000+ meters
  • No significant clouds
From Jan-22 @ 18:00 to Jan-23 @ 00:00
FM221800 09010KT CAVOK
Wind Visibility Clouds Conditions
90° at 10 knots 10,000+ meters
  • No significant clouds
From Jan-23 @ 00:00 to Jan-23 @ 06:00
FM230000 03014KT CAVOK
Wind Visibility Clouds Conditions
30° at 14 knots 10,000+ meters
  • No significant clouds
Temporary  (Probability 30%) Jan-23 @ 03:00 to Jan-23 @ 06:00
PROB30 INTER 2303/2306 VRB20G40KT 8000 TSRA FEW140CB
Wind Visibility Clouds Conditions
Variable at 20 knots
 Gusting to 40 knots
7,998 meters
  • Few at 14,000' AGL
  • Thunderstorm
  • Rain
TAF YPWR 221050Z 2212/2306 15010KT CAVOK FM221800 09010KT CAVOK FM230000 03014KT CAVOK PROB30 INTER 2303/2306 VRB20G40KT 8000 TSRA FEW140CB
Issued Jan-22 @ 10:50 UTC
(6 hours ago)
Valid From Jan-22 @ 12:00 UTC
(5 hours ago)
Valid To Jan-23 @ 06:00 UTC
(in 13 hours)
Jan-22 @ 12:00 - Jan-22 @ 18:00
Wind Visibility
150° at 10 knots 10,000+ meters
Clouds
  • No significant clouds
Conditions
From Jan-22 @ 18:00 - Jan-23 @ 00:00
Wind Visibility
90° at 10 knots 10,000+ meters
Clouds
  • No significant clouds
Conditions
From Jan-23 @ 00:00 - Jan-23 @ 06:00
Wind Visibility
30° at 14 knots 10,000+ meters
Clouds
  • No significant clouds
Conditions
Probability 30% Temporary Jan-23 @ 03:00 - Jan-23 @ 06:00
Wind Visibility
Variable at 20 knots
 Gusting to 40 knots
7,998 meters
Clouds
  • Few at 14,000' AGL
Conditions
  • Thunderstorm
  • Rain